Time;durP1;ratioP1;P1;durP2;ratioP2;P2;SDS_P1;SDS_P2;PMS_P1;PMS_P2;Temp;Humidity;BMP_temperature;BMP_pressure;BME280_temperature;BME280_humidity;BME280_pressure;Samples;Min_cycle;Max_cycle;Signal;HPM_P1;HPM_P2
2023/07/06 00:01:04;;;;;;;23.58;5.13;;;15.50;99.90;;;;;;5132307;27;20102;-72
2023/07/06 00:03:33;;;;;;;22.10;5.60;;;15.60;99.90;;;;;;5130595;27;20475;-72
2023/07/06 00:06:00;;;;;;;24.40;5.57;;;15.60;99.90;;;;;;5130566;27;20034;-72
2023/07/06 00:08:27;;;;;;;17.80;5.25;;;15.60;99.90;;;;;;5130702;27;20102;-72
2023/07/06 00:10:53;;;;;;;15.75;4.53;;;15.50;99.90;;;;;;5127378;27;20023;-72
2023/07/06 00:13:23;;;;;;;16.33;4.85;;;15.50;99.90;;;;;;5104958;28;20031;-72
2023/07/06 00:15:49;;;;;;;18.10;4.95;;;15.50;99.90;;;;;;5127783;27;20399;-72
2023/07/06 00:18:17;;;;;;;15.25;4.90;;;15.50;99.90;;;;;;5130018;27;20023;-72
2023/07/06 00:20:43;;;;;;;18.80;5.03;;;15.50;99.90;;;;;;5123149;27;20023;-71
2023/07/06 00:23:10;;;;;;;23.90;4.97;;;15.60;99.90;;;;;;5132073;27;20019;-71
2023/07/06 00:25:40;;;;;;;22.08;4.88;;;15.50;99.90;;;;;;5131989;27;20019;-71
2023/07/06 00:28:07;;;;;;;15.73;4.80;;;15.60;99.90;;;;;;5131102;27;20042;-72
2023/07/06 00:33:15;;;;;;;21.33;5.28;;;15.60;99.90;;;;;;5123471;27;20039;-72
2023/07/06 00:35:41;;;;;;;19.85;4.70;;;15.60;99.90;;;;;;5128373;27;20031;-71
2023/07/06 00:38:14;;;;;;;23.05;5.35;;;15.60;99.90;;;;;;5112145;27;20042;-72
2023/07/06 00:40:44;;;;;;;20.80;4.72;;;15.70;99.90;;;;;;5131694;27;20026;-71
2023/07/06 00:43:11;;;;;;;25.48;4.97;;;15.70;99.90;;;;;;5131275;27;20042;-72
2023/07/06 00:45:40;;;;;;;16.83;4.57;;;15.70;99.90;;;;;;5129259;27;20023;-71
2023/07/06 00:48:26;;;;;;;13.98;4.43;;;15.70;99.90;;;;;;5131020;27;20033;-72
2023/07/06 00:51:22;;;;;;;23.42;5.25;;;15.70;99.90;;;;;;5131549;27;20433;-72
2023/07/06 00:53:57;;;;;;;16.25;4.93;;;15.70;99.90;;;;;;5104986;27;20065;-71
2023/07/06 00:56:27;;;;;;;14.93;4.82;;;15.70;99.90;;;;;;5123718;27;20043;-72
2023/07/06 00:59:02;;;;;;;18.55;4.68;;;15.70;99.90;;;;;;5131290;27;20046;-72
2023/07/06 01:01:29;;;;;;;21.08;5.05;;;15.70;99.90;;;;;;5127981;27;20023;-72
2023/07/06 01:03:56;;;;;;;19.65;4.78;;;15.70;99.90;;;;;;5130954;27;20046;-72
2023/07/06 01:06:30;;;;;;;20.52;5.30;;;15.70;99.90;;;;;;5131018;27;20023;-72
2023/07/06 01:08:57;;;;;;;25.23;5.60;;;15.70;99.90;;;;;;5129690;27;20062;-72
2023/07/06 01:11:23;;;;;;;20.70;4.95;;;15.70;99.90;;;;;;5129023;27;20083;-72
2023/07/06 01:13:51;;;;;;;18.63;4.40;;;15.70;99.90;;;;;;5119241;27;20429;-72
2023/07/06 01:16:22;;;;;;;25.85;4.85;;;15.60;99.90;;;;;;5128556;27;20030;-72
2023/07/06 01:19:28;;;;;;;16.27;4.88;;;15.60;99.90;;;;;;5127026;27;20030;-72
2023/07/06 01:22:12;;;;;;;16.45;4.82;;;15.60;99.90;;;;;;5085338;28;20023;-72
2023/07/06 01:24:41;;;;;;;23.65;5.40;;;15.60;99.90;;;;;;5129881;28;20478;-72
2023/07/06 01:27:25;;;;;;;24.05;5.47;;;15.60;99.90;;;;;;5130934;28;20053;-72
2023/07/06 01:30:09;;;;;;;26.30;6.32;;;15.60;99.90;;;;;;5124377;28;20118;-72
2023/07/06 01:32:44;;;;;;;24.50;5.07;;;15.60;99.90;;;;;;5128162;28;20023;-72
2023/07/06 01:35:09;;;;;;;24.95;5.70;;;15.60;99.90;;;;;;5130680;28;20509;-72
2023/07/06 01:37:41;;;;;;;19.77;5.55;;;15.50;99.90;;;;;;5130749;28;20019;-72
2023/07/06 01:40:09;;;;;;;23.80;5.78;;;15.50;99.90;;;;;;5130878;28;20058;-72
2023/07/06 01:42:37;;;;;;;26.25;6.07;;;15.50;99.90;;;;;;5130319;28;20403;-72
2023/07/06 01:45:16;;;;;;;22.67;5.80;;;15.50;99.90;;;;;;5130457;28;20031;-72
2023/07/06 01:47:57;;;;;;;22.00;6.03;;;15.50;99.90;;;;;;5129272;28;20027;-72
2023/07/06 01:50:38;;;;;;;25.90;5.88;;;15.50;99.90;;;;;;5130075;28;20047;-72
2023/07/06 01:53:19;;;;;;;20.75;6.07;;;15.50;99.90;;;;;;5121687;28;20058;-72
2023/07/06 01:55:53;;;;;;;24.40;5.93;;;15.50;99.90;;;;;;5130555;28;20027;-72
2023/07/06 01:58:35;;;;;;;22.92;5.68;;;15.50;99.90;;;;;;5125150;28;20076;-72
2023/07/06 02:01:09;;;;;;;23.48;5.93;;;15.50;99.90;;;;;;5128499;28;20027;-72
2023/07/06 02:03:38;;;;;;;29.77;6.73;;;15.50;99.90;;;;;;5129136;28;20023;-72
2023/07/06 02:06:09;;;;;;;24.83;6.07;;;15.40;99.90;;;;;;5106920;28;20016;-72
2023/07/06 02:08:41;;;;;;;30.63;6.85;;;15.40;99.90;;;;;;5129553;28;20134;-72
2023/07/06 02:11:08;;;;;;;23.35;6.55;;;15.50;99.90;;;;;;5129726;28;20019;-72
2023/07/06 02:13:34;;;;;;;29.75;6.25;;;15.50;99.90;;;;;;5117943;28;20023;-72
2023/07/06 02:16:00;;;;;;;28.67;6.40;;;15.40;99.90;;;;;;5128721;28;20088;-72
2023/07/06 02:18:27;;;;;;;30.75;6.22;;;15.50;99.90;;;;;;5125625;28;20055;-72
2023/07/06 02:20:57;;;;;;;24.92;6.60;;;15.50;99.90;;;;;;5127998;28;20356;-72
2023/07/06 02:23:23;;;;;;;28.48;6.70;;;15.50;99.90;;;;;;5130711;28;20424;-72
2023/07/06 02:25:49;;;;;;;30.67;6.70;;;15.50;99.90;;;;;;5130420;28;20021;-72
2023/07/06 02:28:15;;;;;;;25.58;6.95;;;15.50;99.90;;;;;;5129108;27;20016;-72
2023/07/06 02:30:40;;;;;;;25.40;6.82;;;15.50;99.90;;;;;;5133396;27;20475;-72
2023/07/06 02:33:07;;;;;;;34.15;6.72;;;15.60;99.90;;;;;;5134084;27;20056;-72
2023/07/06 02:35:33;;;;;;;28.13;6.63;;;15.60;99.90;;;;;;5132418;27;20011;-72
2023/07/06 02:37:58;;;;;;;28.95;7.32;;;15.50;99.90;;;;;;5132361;27;20502;-72
2023/07/06 02:40:24;;;;;;;26.85;7.13;;;15.60;99.90;;;;;;5115183;27;20071;-72
2023/07/06 02:42:50;;;;;;;19.85;6.85;;;15.60;99.90;;;;;;5132789;27;20072;-72
2023/07/06 02:45:17;;;;;;;26.35;6.78;;;15.60;99.90;;;;;;5132791;27;20355;-72
2023/07/06 02:47:43;;;;;;;27.75;6.55;;;15.60;99.90;;;;;;5133176;27;20029;-72
2023/07/06 02:50:11;;;;;;;25.25;6.47;;;15.60;99.90;;;;;;5128988;27;20051;-72
2023/07/06 02:52:37;;;;;;;34.45;7.03;;;15.60;99.90;;;;;;5128566;27;20073;-72
2023/07/06 02:55:04;;;;;;;33.80;6.10;;;15.60;99.90;;;;;;5130175;27;20027;-72
2023/07/06 02:57:31;;;;;;;23.67;6.57;;;15.60;99.90;;;;;;5125102;27;20027;-73
2023/07/06 02:59:57;;;;;;;25.75;6.80;;;15.60;99.90;;;;;;5132207;27;20375;-72
2023/07/06 03:02:23;;;;;;;28.13;6.85;;;15.70;99.90;;;;;;5130227;27;20031;-72
2023/07/06 03:04:51;;;;;;;23.48;6.63;;;15.70;99.90;;;;;;5132519;27;20454;-72
2023/07/06 03:07:18;;;;;;;23.92;6.38;;;15.60;99.90;;;;;;5127873;27;20023;-72
2023/07/06 03:09:44;;;;;;;32.83;6.75;;;15.70;99.90;;;;;;5130094;27;20506;-72
2023/07/06 03:12:10;;;;;;;24.30;6.60;;;15.70;99.90;;;;;;5129268;27;20031;-71
2023/07/06 03:14:36;;;;;;;31.13;7.32;;;15.70;99.90;;;;;;5118809;27;20556;-72
2023/07/06 03:17:01;;;;;;;25.63;6.70;;;15.70;99.90;;;;;;5114196;27;20452;-73
2023/07/06 03:19:27;;;;;;;29.73;6.60;;;15.70;99.90;;;;;;5132277;27;20486;-73
2023/07/06 03:21:58;;;;;;;27.05;6.50;;;15.70;99.90;;;;;;5133898;27;20354;-73
2023/07/06 03:24:25;;;;;;;26.75;6.70;;;15.70;99.90;;;;;;5102882;27;20108;-73
2023/07/06 03:26:52;;;;;;;27.50;6.85;;;15.70;99.90;;;;;;5133131;27;20047;-73
2023/07/06 03:29:17;;;;;;;27.52;6.47;;;15.70;99.90;;;;;;5132990;27;20067;-73
2023/07/06 03:31:45;;;;;;;31.60;6.43;;;15.70;99.90;;;;;;5132806;27;20442;-72
2023/07/06 03:34:11;;;;;;;26.85;7.00;;;15.70;99.90;;;;;;5132634;27;20049;-72
2023/07/06 03:36:38;;;;;;;32.88;7.50;;;15.70;99.90;;;;;;5130715;27;20094;-73
2023/07/06 03:39:05;;;;;;;28.27;7.35;;;15.70;99.90;;;;;;5125066;27;20019;-73
2023/07/06 03:41:31;;;;;;;32.10;7.38;;;15.70;99.90;;;;;;5131904;27;20439;-73
2023/07/06 03:43:58;;;;;;;27.58;7.22;;;15.70;99.90;;;;;;5133267;27;20019;-73
2023/07/06 03:46:35;;;;;;;26.52;7.53;;;15.70;99.90;;;;;;5132401;27;20019;-72
2023/07/06 03:49:04;;;;;;;31.02;7.32;;;15.70;99.90;;;;;;5132280;27;20383;-73
2023/07/06 03:51:31;;;;;;;27.63;7.07;;;15.70;99.90;;;;;;5132676;27;20487;-73
2023/07/06 03:53:57;;;;;;;28.50;7.00;;;15.70;99.90;;;;;;5132302;27;20023;-72
2023/07/06 03:56:27;;;;;;;29.98;7.10;;;15.70;99.90;;;;;;5132707;27;20054;-73
2023/07/06 03:58:56;;;;;;;33.53;8.05;;;15.70;99.90;;;;;;5131790;27;20111;-73
2023/07/06 04:01:31;;;;;;;25.30;7.40;;;15.70;99.90;;;;;;5122418;27;20024;-72
2023/07/06 04:03:57;;;;;;;32.40;7.63;;;15.70;99.90;;;;;;5115255;27;20036;-73
2023/07/06 04:06:27;;;;;;;34.38;8.10;;;15.60;99.90;;;;;;5132632;27;20026;-73
2023/07/06 04:08:56;;;;;;;35.17;7.82;;;15.60;99.90;;;;;;5131709;27;20023;-73
2023/07/06 04:11:22;;;;;;;31.42;8.30;;;15.70;99.90;;;;;;5132546;27;20019;-73
2023/07/06 04:13:48;;;;;;;28.73;7.97;;;15.70;99.90;;;;;;5131743;27;20382;-73
2023/07/06 04:16:17;;;;;;;30.65;8.23;;;15.60;99.90;;;;;;5132381;27;20073;-72
2023/07/06 04:18:46;;;;;;;34.92;8.18;;;15.70;99.90;;;;;;5131326;27;20034;-73
2023/07/06 04:21:15;;;;;;;30.02;8.18;;;15.60;99.90;;;;;;5132020;27;20028;-73
2023/07/06 04:23:40;;;;;;;28.52;8.02;;;15.60;99.90;;;;;;5131387;27;20030;-73
2023/07/06 04:26:06;;;;;;;26.25;8.25;;;15.70;99.90;;;;;;5131692;27;20027;-73
2023/07/06 04:28:32;;;;;;;29.77;8.15;;;15.60;99.90;;;;;;5131432;27;20041;-73
2023/07/06 04:30:58;;;;;;;32.13;7.85;;;15.60;99.90;;;;;;5131950;27;20034;-73
2023/07/06 04:33:23;;;;;;;27.70;8.00;;;15.70;99.90;;;;;;5131517;27;20031;-72
2023/07/06 04:35:51;;;;;;;33.78;8.05;;;15.70;99.90;;;;;;5131619;27;20112;-73
2023/07/06 04:38:18;;;;;;;32.58;7.97;;;15.70;99.90;;;;;;5131028;27;20034;-73
2023/07/06 04:40:44;;;;;;;34.28;7.97;;;15.70;99.90;;;;;;5126079;27;20024;-73
2023/07/06 04:43:11;;;;;;;30.58;9.02;;;15.70;99.90;;;;;;5128251;27;20031;-73
2023/07/06 04:45:37;;;;;;;27.75;8.70;;;15.70;99.90;;;;;;5130788;27;20099;-73
2023/07/06 04:48:10;;;;;;;37.25;9.35;;;15.70;99.90;;;;;;5130362;27;20019;-73
2023/07/06 04:50:40;;;;;;;34.13;9.20;;;15.70;99.90;;;;;;5128519;27;20039;-73
2023/07/06 04:53:07;;;;;;;36.38;9.20;;;15.70;99.90;;;;;;5130870;27;20065;-72
2023/07/06 04:55:33;;;;;;;32.00;9.15;;;15.70;99.90;;;;;;5131320;27;20053;-73
2023/07/06 04:58:00;;;;;;;33.03;9.95;;;15.70;99.90;;;;;;5130852;27;20114;-73
2023/07/06 05:00:29;;;;;;;33.60;10.25;;;15.80;99.90;;;;;;5112288;27;20019;-73
2023/07/06 05:03:00;;;;;;;37.28;9.13;;;15.80;99.90;;;;;;5130807;27;20563;-73
2023/07/06 05:05:28;;;;;;;32.45;8.98;;;15.80;99.90;;;;;;5131165;27;20023;-73
2023/07/06 05:07:55;;;;;;;31.55;9.00;;;15.80;99.90;;;;;;5121769;27;20026;-73
2023/07/06 05:10:21;;;;;;;27.67;9.82;;;15.80;99.90;;;;;;5129167;27;20027;-73
2023/07/06 05:12:47;;;;;;;30.13;10.30;;;15.80;99.90;;;;;;5131090;27;20031;-73
2023/07/06 05:15:14;;;;;;;29.70;9.30;;;15.80;99.90;;;;;;5131351;27;20532;-73
2023/07/06 05:17:40;;;;;;;33.13;9.88;;;15.80;99.90;;;;;;5128533;27;20475;-73
2023/07/06 05:20:14;;;;;;;35.67;9.65;;;15.80;99.90;;;;;;5127057;27;20506;-73
2023/07/06 05:22:42;;;;;;;27.80;9.40;;;15.90;99.90;;;;;;5128707;28;20118;-73
2023/07/06 05:25:08;;;;;;;35.50;10.20;;;15.90;99.90;;;;;;5130649;28;20054;-73
2023/07/06 05:27:35;;;;;;;39.85;10.05;;;15.90;99.90;;;;;;5111786;28;20030;-73
2023/07/06 05:30:01;;;;;;;32.92;9.93;;;15.90;99.90;;;;;;5129117;28;20570;-73
2023/07/06 05:32:26;;;;;;;41.47;10.80;;;15.90;99.90;;;;;;5129232;28;20126;-73
2023/07/06 05:34:52;;;;;;;37.30;11.85;;;16.00;99.90;;;;;;5127770;28;20019;-74
2023/07/06 05:37:18;;;;;;;35.55;11.82;;;16.00;99.90;;;;;;5114959;28;20019;-74
2023/07/06 05:39:44;;;;;;;38.65;11.88;;;16.00;99.90;;;;;;5127626;28;20016;-74
2023/07/06 05:42:10;;;;;;;38.00;12.57;;;16.00;99.90;;;;;;5131866;28;20039;-74
2023/07/06 05:44:35;;;;;;;49.13;13.05;;;16.10;99.90;;;;;;5113413;28;20072;-74
2023/07/06 05:47:01;;;;;;;37.67;13.35;;;16.10;99.90;;;;;;5118760;28;20103;-74
2023/07/06 05:49:27;;;;;;;41.40;13.25;;;16.10;99.90;;;;;;5129236;28;20023;-74
2023/07/06 05:51:52;;;;;;;38.45;13.15;;;16.10;99.90;;;;;;5130492;28;20058;-73
2023/07/06 05:54:18;;;;;;;36.90;12.82;;;16.20;99.90;;;;;;5129902;28;20031;-74
2023/07/06 05:56:44;;;;;;;39.55;12.20;;;16.20;99.90;;;;;;5129505;28;20023;-74
2023/07/06 05:59:10;;;;;;;37.70;11.23;;;16.20;99.90;;;;;;5131542;28;20024;-74
2023/07/06 06:01:36;;;;;;;34.08;11.05;;;16.30;99.90;;;;;;5131134;28;20023;-72
2023/07/06 06:04:02;;;;;;;32.38;10.48;;;16.30;99.90;;;;;;5127666;27;20019;-73
2023/07/06 06:06:27;;;;;;;37.05;10.70;;;16.40;99.90;;;;;;5134423;27;20027;-72
2023/07/06 06:08:54;;;;;;;28.52;10.55;;;16.40;99.90;;;;;;5134189;27;20058;-72
2023/07/06 06:11:21;;;;;;;31.75;9.88;;;16.40;99.90;;;;;;5134818;27;20096;-73
2023/07/06 06:13:47;;;;;;;31.30;10.48;;;16.50;99.90;;;;;;5130877;27;20024;-72
2023/07/06 06:16:13;;;;;;;27.30;9.68;;;16.50;99.90;;;;;;5133209;27;20030;-73
2023/07/06 06:18:39;;;;;;;32.42;9.23;;;16.60;99.90;;;;;;5128159;27;20015;-72
2023/07/06 06:21:10;;;;;;;26.80;6.80;;;16.70;99.90;;;;;;5134030;27;20062;-73
2023/07/06 06:23:36;;;;;;;28.05;6.82;;;16.70;99.90;;;;;;5134547;27;20027;-72
2023/07/06 06:26:02;;;;;;;20.15;6.45;;;16.80;99.90;;;;;;5133733;27;20029;-73
2023/07/06 06:28:27;;;;;;;20.80;6.88;;;16.90;99.90;;;;;;5133081;27;20027;-73
2023/07/06 06:30:55;;;;;;;25.52;6.85;;;17.00;99.90;;;;;;5132612;27;20108;-71
2023/07/06 06:33:21;;;;;;;22.80;6.90;;;17.00;99.90;;;;;;5135493;27;20065;-72
2023/07/06 06:35:47;;;;;;;17.88;6.07;;;17.10;99.90;;;;;;5134659;27;20054;-72
2023/07/06 06:38:14;;;;;;;21.27;5.90;;;17.10;99.90;;;;;;5134348;27;20039;-72
2023/07/06 06:40:40;;;;;;;19.70;5.65;;;17.20;99.90;;;;;;5133755;27;20106;-73
2023/07/06 06:43:06;;;;;;;19.33;4.88;;;17.20;99.90;;;;;;5125583;27;20027;-72
2023/07/06 06:45:32;;;;;;;17.95;5.93;;;17.30;99.90;;;;;;5138517;27;20007;-76
2023/07/06 06:47:58;;;;;;;25.80;6.60;;;17.40;99.90;;;;;;5114723;27;20016;-76
2023/07/06 06:50:26;;;;;;;21.45;6.07;;;17.50;99.90;;;;;;5099392;27;20049;-76
2023/07/06 06:52:51;;;;;;;25.75;7.03;;;17.50;99.90;;;;;;5036586;28;20036;-76
2023/07/06 06:55:17;;;;;;;22.00;6.85;;;17.60;99.90;;;;;;5037455;28;20034;-78
2023/07/06 06:57:43;;;;;;;20.05;6.15;;;17.70;99.90;;;;;;5037869;28;20021;-78
2023/07/06 07:00:10;;;;;;;23.48;5.57;;;17.80;99.90;;;;;;5049126;28;20047;-78
2023/07/06 07:02:39;;;;;;;19.85;5.32;;;17.90;99.90;;;;;;5039757;28;20055;-78
2023/07/06 07:05:06;;;;;;;15.13;5.25;;;18.00;99.90;;;;;;5032754;28;20041;-78
2023/07/06 07:07:33;;;;;;;21.85;5.80;;;18.10;99.90;;;;;;5048837;28;20013;-79
2023/07/06 07:09:59;;;;;;;20.85;5.38;;;18.20;99.90;;;;;;5048856;28;20032;-79
2023/07/06 07:12:25;;;;;;;16.00;4.38;;;18.20;99.90;;;;;;5049276;28;20053;-78
2023/07/06 07:14:51;;;;;;;17.80;4.63;;;18.20;99.90;;;;;;5041074;28;20053;-78
2023/07/06 07:17:16;;;;;;;23.92;4.45;;;18.20;99.90;;;;;;5031230;28;20022;-78
2023/07/06 07:19:42;;;;;;;22.00;4.47;;;18.20;99.90;;;;;;5045169;28;20534;-79
2023/07/06 07:22:08;;;;;;;16.13;5.05;;;18.20;99.90;;;;;;5039085;28;20018;-79
2023/07/06 07:24:33;;;;;;;17.42;4.00;;;18.20;99.90;;;;;;5046569;28;20022;-78
2023/07/06 07:27:00;;;;;;;15.20;4.60;;;18.20;99.90;;;;;;5070536;27;20037;-79
2023/07/06 07:29:26;;;;;;;16.05;4.75;;;18.20;99.90;;;;;;5040452;28;20014;-79
2023/07/06 07:31:52;;;;;;;20.48;4.90;;;18.20;99.90;;;;;;5041021;28;20777;-78
2023/07/06 07:34:18;;;;;;;13.57;4.22;;;18.30;99.90;;;;;;5039712;28;20166;-78
2023/07/06 07:36:45;;;;;;;16.23;4.30;;;18.30;99.90;;;;;;5103514;28;20086;-79
2023/07/06 07:39:11;;;;;;;21.08;5.25;;;18.30;99.90;;;;;;5041385;28;20029;-79
2023/07/06 07:41:37;;;;;;;18.60;4.47;;;18.20;99.90;;;;;;5036461;28;20022;-78
2023/07/06 07:44:03;;;;;;;18.92;5.28;;;18.20;99.90;;;;;;5036752;28;20050;-78
2023/07/06 07:46:29;;;;;;;19.30;4.93;;;18.20;99.90;;;;;;5029121;28;20025;-78
2023/07/06 07:48:55;;;;;;;13.98;4.80;;;18.20;99.90;;;;;;5031409;27;20071;-79
2023/07/06 07:51:25;;;;;;;18.52;5.30;;;18.20;99.90;;;;;;5113193;27;20102;-79
2023/07/06 07:53:53;;;;;;;18.42;4.70;;;18.10;99.90;;;;;;5140675;27;20649;-79
2023/07/06 07:56:20;;;;;;;15.82;4.95;;;18.10;99.90;;;;;;5144535;27;20035;-79
2023/07/06 07:58:49;;;;;;;19.90;5.43;;;18.10;99.90;;;;;;5142284;27;20046;-78
2023/07/06 08:01:17;;;;;;;13.98;4.32;;;18.10;99.90;;;;;;5132813;27;20095;-79
2023/07/06 08:03:43;;;;;;;16.48;4.15;;;18.20;99.90;;;;;;5127181;27;20031;-78
2023/07/06 08:06:14;;;;;;;14.20;3.92;;;18.20;99.90;;;;;;5139544;27;20027;-77
2023/07/06 08:08:42;;;;;;;15.77;3.75;;;18.20;99.90;;;;;;5134823;27;20060;-77
2023/07/06 08:11:12;;;;;;;12.85;4.20;;;18.20;99.90;;;;;;5132728;27;20022;-77
2023/07/06 08:13:37;;;;;;;11.30;3.70;;;18.20;99.90;;;;;;5132060;27;20168;-77
2023/07/06 08:16:05;;;;;;;15.40;4.32;;;18.20;99.90;;;;;;5128072;27;20114;-77
2023/07/06 08:18:32;;;;;;;14.43;4.32;;;18.20;99.90;;;;;;5125366;27;20019;-77
2023/07/06 08:20:58;;;;;;;15.00;4.15;;;18.20;99.90;;;;;;5104026;27;20020;-77
2023/07/06 08:23:26;;;;;;;15.95;4.32;;;18.30;99.90;;;;;;5131636;27;20051;-78
2023/07/06 08:25:52;;;;;;;14.90;4.32;;;18.40;99.90;;;;;;5113459;27;20495;-78
2023/07/06 08:28:31;;;;;;;15.50;4.28;;;18.50;99.90;;;;;;5122743;27;20149;-78
2023/07/06 08:31:01;;;;;;;13.60;3.47;;;18.70;99.90;;;;;;5134506;27;20023;-78
2023/07/06 08:33:27;;;;;;;12.43;3.17;;;18.80;99.90;;;;;;5125354;27;20360;-78
2023/07/06 08:35:53;;;;;;;6.63;2.65;;;18.90;99.90;;;;;;5128860;27;20110;-78
2023/07/06 08:38:19;;;;;;;6.82;2.35;;;18.90;99.90;;;;;;5129694;27;20020;-78
2023/07/06 08:40:52;;;;;;;11.48;3.20;;;18.90;99.90;;;;;;5128917;27;20043;-78
2023/07/06 08:43:26;;;;;;;9.25;2.63;;;18.90;99.90;;;;;;5129530;27;20294;-79
2023/07/06 08:46:00;;;;;;;14.68;2.95;;;18.90;99.90;;;;;;5130423;27;20019;-78
2023/07/06 08:48:30;;;;;;;8.48;3.03;;;19.00;99.90;;;;;;5131089;27;20023;-78
2023/07/06 08:51:03;;;;;;;7.93;3.08;;;19.00;99.90;;;;;;5105387;27;20552;-78
2023/07/06 08:53:33;;;;;;;10.00;2.60;;;19.00;99.90;;;;;;5126809;27;20464;-78
2023/07/06 08:56:03;;;;;;;12.52;2.40;;;19.00;99.90;;;;;;5131491;27;20027;-78
2023/07/06 08:58:31;;;;;;;7.20;2.22;;;19.00;99.90;;;;;;5130864;27;20015;-78
2023/07/06 09:01:12;;;;;;;8.27;2.33;;;19.00;99.90;;;;;;5125859;27;20061;-78
2023/07/06 09:03:48;;;;;;;7.68;2.45;;;19.00;99.90;;;;;;5133418;27;20439;-78
2023/07/06 09:06:20;;;;;;;9.20;2.35;;;19.00;99.90;;;;;;5130627;27;20046;-78
2023/07/06 09:08:48;;;;;;;10.55;2.40;;;19.00;99.90;;;;;;5131883;27;20026;-78
2023/07/06 09:11:14;;;;;;;6.43;2.30;;;19.00;99.90;;;;;;5133004;27;20023;-78
2023/07/06 09:13:54;;;;;;;8.60;2.72;;;19.00;99.90;;;;;;5131155;27;20034;-78
2023/07/06 09:16:21;;;;;;;9.25;2.58;;;19.10;99.90;;;;;;5131831;27;20031;-78
2023/07/06 09:18:48;;;;;;;6.70;2.70;;;19.10;99.90;;;;;;5134338;27;20019;-78
2023/07/06 09:21:16;;;;;;;7.18;2.45;;;19.10;99.90;;;;;;5128806;27;20022;-78
2023/07/06 09:23:45;;;;;;;10.55;2.42;;;19.20;99.90;;;;;;5132404;28;20031;-78
2023/07/06 09:26:33;;;;;;;7.80;2.17;;;19.30;99.90;;;;;;5129626;28;20027;-78
2023/07/06 09:29:22;;;;;;;4.97;2.17;;;19.40;99.90;;;;;;5131585;28;20023;-78
2023/07/06 09:31:48;;;;;;;8.90;2.10;;;19.40;99.90;;;;;;5130731;28;20023;-79
2023/07/06 09:34:25;;;;;;;8.85;1.60;;;19.50;99.90;;;;;;5133640;28;20110;-78
2023/07/06 09:36:51;;;;;;;4.47;1.20;;;19.60;99.90;;;;;;5109878;28;20020;-78
2023/07/06 09:39:17;;;;;;;5.07;1.60;;;19.60;99.90;;;;;;5135272;27;20554;-78
2023/07/06 09:41:45;;;;;;;3.83;1.25;;;19.50;99.90;;;;;;5135997;27;20019;-78
2023/07/06 09:44:15;;;;;;;6.65;1.60;;;19.60;99.90;;;;;;5134114;27;20303;-78
2023/07/06 09:46:43;;;;;;;3.28;1.10;;;19.80;99.90;;;;;;5131397;27;20019;-78
2023/07/06 09:49:17;;;;;;;5.43;1.20;;;19.90;99.90;;;;;;5128512;27;20019;-78
2023/07/06 09:51:54;;;;;;;5.17;1.00;;;20.10;99.90;;;;;;5134578;27;20491;-77
2023/07/06 09:54:42;;;;;;;2.90;1.30;;;20.10;99.90;;;;;;5131672;27;20015;-78
2023/07/06 09:57:14;;;;;;;3.10;1.10;;;20.10;99.90;;;;;;5135215;27;20042;-78
2023/07/06 09:59:46;;;;;;;4.57;1.15;;;20.10;99.90;;;;;;5110479;27;20027;-77
2023/07/06 10:02:39;;;;;;;3.85;1.10;;;20.20;99.90;;;;;;5133491;27;20027;-78
2023/07/06 10:05:24;;;;;;;3.70;1.20;;;20.30;99.90;;;;;;5127511;27;20023;-78
2023/07/06 10:08:00;;;;;;;3.23;1.00;;;20.40;99.90;;;;;;5135397;27;20023;-78
2023/07/06 10:10:56;;;;;;;5.53;1.05;;;20.60;99.90;;;;;;5134587;27;20413;-78
2023/07/06 10:13:28;;;;;;;5.00;1.20;;;20.80;99.90;;;;;;5110105;27;20029;-78
2023/07/06 10:16:06;;;;;;;7.45;1.10;;;20.90;99.90;;;;;;5132340;27;20030;-78
2023/07/06 10:18:39;;;;;;;2.97;0.90;;;21.00;99.20;;;;;;5136795;27;20027;-79
2023/07/06 10:21:24;;;;;;;3.97;1.08;;;21.10;97.70;;;;;;5131364;27;20046;-78
2023/07/06 10:24:20;;;;;;;2.63;0.88;;;21.10;97.40;;;;;;5132537;27;20015;-74
2023/07/06 10:26:52;;;;;;;3.03;0.70;;;21.20;96.90;;;;;;5113842;27;20031;-74
2023/07/06 10:29:50;;;;;;;1.52;0.70;;;21.30;96.30;;;;;;5132504;27;20027;-74
2023/07/06 10:32:24;;;;;;;3.97;1.00;;;21.40;94.80;;;;;;5130339;27;20024;-74
2023/07/06 10:34:58;;;;;;;2.10;0.87;;;21.50;94.00;;;;;;5132301;27;20026;-74
2023/07/06 10:37:27;;;;;;;2.50;0.97;;;21.60;92.60;;;;;;5133967;27;20023;-78
2023/07/06 10:40:15;;;;;;;3.30;0.88;;;21.50;92.50;;;;;;5113233;27;20026;-77
2023/07/06 10:42:47;;;;;;;3.15;0.90;;;21.70;92.40;;;;;;5130398;27;20030;-77
2023/07/06 10:45:32;;;;;;;2.17;0.98;;;21.80;92.40;;;;;;5131892;27;20479;-77
2023/07/06 10:48:15;;;;;;;3.20;0.93;;;21.90;90.80;;;;;;5131763;27;20522;-77
2023/07/06 10:50:47;;;;;;;2.38;0.73;;;22.00;91.20;;;;;;5129300;27;20051;-77
2023/07/06 10:53:40;;;;;;;2.38;0.77;;;22.20;90.40;;;;;;5128723;27;20038;-76
2023/07/06 10:56:11;;;;;;;1.92;0.80;;;22.30;88.90;;;;;;5129805;27;20027;-76
2023/07/06 10:58:55;;;;;;;5.88;1.00;;;22.40;86.90;;;;;;5133328;27;20026;-76
2023/07/06 11:01:27;;;;;;;2.47;1.00;;;22.40;84.80;;;;;;5126554;27;20039;-76
2023/07/06 11:03:54;;;;;;;1.92;0.80;;;22.50;83.80;;;;;;5110043;27;20031;-76
2023/07/06 11:06:45;;;;;;;3.80;0.80;;;22.40;83.10;;;;;;5131979;27;20027;-75
2023/07/06 11:09:14;;;;;;;4.90;0.90;;;22.40;82.40;;;;;;5118970;27;20043;-76
2023/07/06 11:11:49;;;;;;;2.25;0.90;;;22.30;80.20;;;;;;5131108;27;20026;-76
2023/07/06 11:14:38;;;;;;;3.83;0.90;;;22.30;79.20;;;;;;5131264;27;20023;-76
2023/07/06 11:17:21;;;;;;;1.83;0.90;;;22.30;79.80;;;;;;5123872;27;20015;-76
2023/07/06 11:20:13;;;;;;;3.15;0.90;;;22.30;78.10;;;;;;5126371;27;20023;-76
2023/07/06 11:22:40;;;;;;;2.83;0.90;;;22.30;78.60;;;;;;5122909;27;20502;-76
2023/07/06 11:25:12;;;;;;;0.90;0.80;;;22.40;79.80;;;;;;5131009;27;20023;-76
2023/07/06 11:27:44;;;;;;;2.63;1.02;;;22.50;79.10;;;;;;5123592;27;20019;-76
2023/07/06 11:30:15;;;;;;;2.95;1.02;;;22.60;76.60;;;;;;5125351;27;20491;-76
2023/07/06 11:32:47;;;;;;;1.58;1.00;;;22.50;75.30;;;;;;5132317;27;20026;-75
2023/07/06 11:35:47;;;;;;;3.80;0.95;;;22.50;74.50;;;;;;5130317;27;20112;-76
2023/07/06 11:38:38;;;;;;;3.42;1.25;;;22.50;74.20;;;;;;5123553;27;20453;-76
2023/07/06 11:41:24;;;;;;;2.30;0.98;;;22.50;74.60;;;;;;5131261;27;20030;-77
2023/07/06 11:43:52;;;;;;;3.08;1.00;;;22.70;74.30;;;;;;5125322;27;20055;-76
2023/07/06 11:46:31;;;;;;;3.65;1.15;;;22.90;74.20;;;;;;5131753;27;20341;-76
2023/07/06 11:49:21;;;;;;;3.22;1.17;;;23.00;71.80;;;;;;5127983;27;20023;-76
2023/07/06 11:51:49;;;;;;;4.82;1.20;;;22.90;71.90;;;;;;5075759;28;20058;-76
2023/07/06 11:57:24;;;;;;;3.35;1.00;;;22.60;73.10;;;;;;5000913;28;20127;-76
2023/07/06 12:00:14;;;;;;;5.78;1.30;;;22.60;73.30;;;;;;5003428;28;20389;-76
2023/07/06 12:02:41;;;;;;;4.43;1.10;;;22.60;73.70;;;;;;4999103;28;20033;-76
2023/07/06 12:05:29;;;;;;;2.08;1.13;;;22.80;75.10;;;;;;5003695;28;20129;-76
2023/07/06 12:08:00;;;;;;;2.55;1.13;;;23.00;72.00;;;;;;5003404;28;20045;-76
2023/07/06 12:10:34;;;;;;;2.53;1.10;;;23.10;72.20;;;;;;5003083;28;20030;-76
2023/07/06 12:13:00;;;;;;;4.85;1.50;;;23.20;72.00;;;;;;5004585;28;20474;-75
2023/07/06 12:15:26;;;;;;;3.20;1.30;;;23.10;70.60;;;;;;5007455;28;20037;-76
2023/07/06 12:17:56;;;;;;;4.65;1.20;;;23.00;70.40;;;;;;5020910;28;20026;-76
2023/07/06 12:20:25;;;;;;;6.68;1.50;;;23.00;69.60;;;;;;5009838;28;20032;-75
2023/07/06 12:22:57;;;;;;;4.95;1.45;;;23.00;70.90;;;;;;5004217;28;20052;-75
2023/07/06 12:25:24;;;;;;;2.30;1.30;;;23.10;70.20;;;;;;5004000;28;20153;-76
2023/07/06 12:28:07;;;;;;;2.33;1.17;;;23.20;69.60;;;;;;5009538;28;20022;-76
2023/07/06 12:30:33;;;;;;;3.00;1.20;;;23.30;68.80;;;;;;5086653;28;20099;-76
2023/07/06 12:33:04;;;;;;;4.82;1.40;;;23.30;68.30;;;;;;5011077;28;20168;-76
2023/07/06 12:35:33;;;;;;;4.68;1.10;;;23.40;68.30;;;;;;4999518;28;20091;-76
2023/07/06 12:38:00;;;;;;;4.22;1.30;;;23.40;68.90;;;;;;5001998;28;20033;-76
2023/07/06 12:40:26;;;;;;;4.50;1.17;;;23.50;68.60;;;;;;5007887;28;20025;-75
2023/07/06 12:42:53;;;;;;;3.95;1.40;;;23.60;67.70;;;;;;5012060;28;20026;-76
2023/07/06 12:45:22;;;;;;;4.05;1.23;;;23.60;67.60;;;;;;5008298;28;20490;-75
2023/07/06 12:48:05;;;;;;;2.97;1.50;;;23.70;67.50;;;;;;5008924;28;20065;-76
2023/07/06 12:50:39;;;;;;;4.85;1.40;;;23.80;67.20;;;;;;5045100;27;20134;-75
2023/07/06 12:53:33;;;;;;;3.90;1.33;;;23.80;66.10;;;;;;5128337;27;20019;-75
2023/07/06 12:56:06;;;;;;;2.03;1.10;;;23.80;64.80;;;;;;5128078;27;20499;-75
2023/07/06 12:58:35;;;;;;;3.95;1.27;;;23.80;65.60;;;;;;5130324;27;20023;-75
2023/07/06 13:01:13;;;;;;;2.95;0.90;;;23.80;64.80;;;;;;5123914;27;20449;-75